Terminal Aerodrome Forecast
Issued by NWS

Home | Current Version | Previous Version | Text Only | Print | Product List | Glossary Off
Versions: 1 2 3 4 5 6 7 8 9 10 11 12 13 14

000
FTUS43 KFGF 242300
TAFBJI
TAF
KBJI 242333Z 2500/2524 22006KT P6SM OVC012
     FM250300 21006KT P6SM OVC007
     FM252000 31006KT P6SM OVC015=

USA.gov is the U.S. government's official web portal to all federal, state and local government web resources and services.